Time;durP1;ratioP1;P1;durP2;ratioP2;P2;SDS_P1;SDS_P2;PMS_P1;PMS_P2;Temp;Humidity;BMP_temperature;BMP_pressure;BME280_temperature;BME280_humidity;BME280_pressure;Samples;Min_cycle;Max_cycle;Signal;HPM_P1;HPM_P2
2023/08/06 00:00:27;;;;;;;10.77;2.20;;;;;;;;;;5000402;28;20044;-68
2023/08/06 00:04:07;;;;;;;7.68;1.90;;;;;;;;;;5001847;28;20068;-68
2023/08/06 00:07:48;;;;;;;11.82;2.13;;;;;;;;;;5003109;28;20072;-70
2023/08/06 00:11:28;;;;;;;10.15;2.40;;;;;;;;;;5009471;28;20053;-68
2023/08/06 00:15:11;;;;;;;6.07;2.00;;;;;;;;;;5002316;28;20056;-74
2023/08/06 00:18:51;;;;;;;7.20;1.83;;;;;;;;;;5002322;28;20057;-68
2023/08/06 00:22:31;;;;;;;8.55;2.22;;;;;;;;;;5002399;28;20567;-69
2023/08/06 00:26:12;;;;;;;10.32;2.20;;;;;;;;;;5001993;28;20056;-68
2023/08/06 00:29:52;;;;;;;12.40;2.38;;;;;;;;;;5002161;28;20049;-69
2023/08/06 00:33:32;;;;;;;5.90;1.95;;;;;;;;;;5003572;28;20060;-67
2023/08/06 00:37:13;;;;;;;7.07;2.22;;;;;;;;;;5001895;28;20053;-66
2023/08/06 00:40:53;;;;;;;5.30;2.00;;;;;;;;;;5005392;28;20045;-69
2023/08/06 00:44:33;;;;;;;7.78;2.10;;;;;;;;;;5001257;28;20255;-67
2023/08/06 00:48:14;;;;;;;5.22;2.00;;;;;;;;;;5000416;28;20045;-67
2023/08/06 00:51:54;;;;;;;11.63;2.58;;;;;;;;;;5001465;28;20561;-66
2023/08/06 00:55:34;;;;;;;10.30;2.65;;;;;;;;;;5004455;28;20848;-67
2023/08/06 00:59:15;;;;;;;4.30;2.40;;;;;;;;;;5000796;28;20515;-68
2023/08/06 01:02:55;;;;;;;5.95;2.72;;;;;;;;;;5002559;28;20046;-67
2023/08/06 01:06:35;;;;;;;6.45;2.20;;;;;;;;;;5002485;28;20057;-67
2023/08/06 01:10:17;;;;;;;8.38;2.38;;;;;;;;;;5005819;28;20049;-66
2023/08/06 01:13:58;;;;;;;8.65;2.42;;;;;;;;;;5002122;28;20132;-67
2023/08/06 01:17:39;;;;;;;5.82;2.10;;;;;;;;;;5001193;28;20048;-68
2023/08/06 01:21:19;;;;;;;8.48;2.60;;;;;;;;;;5003865;28;20045;-68
2023/08/06 01:24:59;;;;;;;8.90;2.78;;;;;;;;;;5004426;28;20045;-68
2023/08/06 01:28:40;;;;;;;8.73;1.83;;;;;;;;;;5009802;28;20065;-67
2023/08/06 01:32:20;;;;;;;8.90;2.17;;;;;;;;;;5008102;28;20077;-67
2023/08/06 01:36:01;;;;;;;9.55;2.40;;;;;;;;;;5010983;28;20049;-70
2023/08/06 01:39:41;;;;;;;12.65;2.40;;;;;;;;;;5008167;28;20057;-68
2023/08/06 01:43:21;;;;;;;7.38;2.30;;;;;;;;;;5007601;28;20051;-69
2023/08/06 01:47:02;;;;;;;7.05;2.30;;;;;;;;;;5008155;28;20055;-68
2023/08/06 01:50:42;;;;;;;8.07;2.72;;;;;;;;;;5009363;28;20095;-68
2023/08/06 01:54:22;;;;;;;13.05;2.70;;;;;;;;;;5007634;28;20128;-68
2023/08/06 01:58:03;;;;;;;10.93;2.88;;;;;;;;;;5007171;28;20042;-68
2023/08/06 02:01:43;;;;;;;7.22;2.40;;;;;;;;;;5009652;28;20112;-69
2023/08/06 02:05:24;;;;;;;10.88;2.60;;;;;;;;;;5007827;28;20123;-67
2023/08/06 02:09:04;;;;;;;9.75;2.05;;;;;;;;;;5008715;28;20096;-68
2023/08/06 02:12:45;;;;;;;9.35;3.00;;;;;;;;;;5010136;28;20684;-68
2023/08/06 02:16:25;;;;;;;10.10;2.72;;;;;;;;;;5008445;28;20037;-68
2023/08/06 02:20:05;;;;;;;6.43;2.20;;;;;;;;;;5008729;28;20049;-67
2023/08/06 02:23:46;;;;;;;8.57;2.47;;;;;;;;;;5009568;28;20133;-66
2023/08/06 02:27:26;;;;;;;10.25;2.50;;;;;;;;;;5006841;28;20059;-66
2023/08/06 02:31:06;;;;;;;10.02;2.45;;;;;;;;;;5008689;28;20053;-66
2023/08/06 02:34:47;;;;;;;8.50;2.17;;;;;;;;;;5010600;28;20128;-67
2023/08/06 02:38:27;;;;;;;7.43;2.20;;;;;;;;;;5003523;28;20058;-65
2023/08/06 02:42:07;;;;;;;9.18;2.47;;;;;;;;;;5005682;28;20499;-66
2023/08/06 02:45:48;;;;;;;11.85;2.22;;;;;;;;;;5003317;28;20069;-66
2023/08/06 02:49:28;;;;;;;8.45;1.77;;;;;;;;;;5003522;28;20042;-64
2023/08/06 02:53:10;;;;;;;9.07;2.08;;;;;;;;;;5002979;28;20480;-68
2023/08/06 02:56:50;;;;;;;7.28;2.08;;;;;;;;;;5005221;28;20109;-65
2023/08/06 03:00:31;;;;;;;6.07;2.00;;;;;;;;;;5005055;28;20160;-66
2023/08/06 03:04:11;;;;;;;7.60;2.30;;;;;;;;;;5004181;28;20052;-66
2023/08/06 03:07:51;;;;;;;11.88;2.03;;;;;;;;;;5007462;28;20042;-66
2023/08/06 03:10:37;;;;;;;13.07;2.55;;;;;;;;;;5008896;28;20791;-68
2023/08/06 03:13:03;;;;;;;6.47;2.05;;;;;;;;;;5003827;28;20049;-66
2023/08/06 03:15:29;;;;;;;9.65;2.03;;;;;;;;;;5003752;28;20499;-66
2023/08/06 03:17:56;;;;;;;8.05;2.63;;;;;;;;;;5004596;28;20136;-66
2023/08/06 03:20:22;;;;;;;9.82;2.50;;;;;;;;;;5006992;28;20424;-66
2023/08/06 03:22:48;;;;;;;6.28;2.17;;;;;;;;;;5005216;28;20075;-66
2023/08/06 03:25:14;;;;;;;8.43;2.03;;;;;;;;;;5005716;28;20060;-65
2023/08/06 03:27:40;;;;;;;6.18;2.13;;;;;;;;;;5003578;28;20057;-66
2023/08/06 03:30:07;;;;;;;6.82;2.40;;;;;;;;;;5004419;28;20064;-66
2023/08/06 03:32:33;;;;;;;5.30;2.00;;;;;;;;;;5002963;28;20049;-66
2023/08/06 03:34:59;;;;;;;7.03;2.10;;;;;;;;;;5005609;28;20048;-65
2023/08/06 03:37:25;;;;;;;10.40;2.70;;;;;;;;;;5003721;28;20411;-66
2023/08/06 03:39:51;;;;;;;5.72;2.10;;;;;;;;;;5005179;28;20072;-67
2023/08/06 03:42:17;;;;;;;7.25;2.45;;;;;;;;;;5003345;28;20053;-66
2023/08/06 03:44:43;;;;;;;10.38;2.55;;;;;;;;;;5001686;28;20046;-67
2023/08/06 03:47:09;;;;;;;9.88;2.45;;;;;;;;;;5002327;28;20841;-66
2023/08/06 03:49:35;;;;;;;10.75;2.47;;;;;;;;;;5003249;28;20053;-64
2023/08/06 03:52:02;;;;;;;7.97;2.50;;;;;;;;;;5004056;28;20050;-64
2023/08/06 03:54:29;;;;;;;5.43;2.45;;;;;;;;;;5006324;28;20057;-66
2023/08/06 03:56:54;;;;;;;9.57;2.38;;;;;;;;;;5018299;28;20049;-66
2023/08/06 03:59:20;;;;;;;7.85;2.47;;;;;;;;;;5004165;28;20183;-65
2023/08/06 04:01:46;;;;;;;13.40;2.60;;;;;;;;;;5002353;28;20515;-65
2023/08/06 04:04:13;;;;;;;10.68;2.70;;;;;;;;;;5004191;28;20065;-64
2023/08/06 04:06:38;;;;;;;9.25;2.45;;;;;;;;;;5002065;28;20713;-64
2023/08/06 04:09:04;;;;;;;8.68;2.13;;;;;;;;;;5003758;28;20073;-66
2023/08/06 04:11:30;;;;;;;11.57;2.30;;;;;;;;;;5007552;28;20637;-64
2023/08/06 04:13:56;;;;;;;7.10;2.13;;;;;;;;;;5003710;28;20112;-65
2023/08/06 04:16:22;;;;;;;6.68;2.10;;;;;;;;;;4998768;28;20462;-64
2023/08/06 04:18:48;;;;;;;10.20;2.10;;;;;;;;;;5002115;28;20069;-65
2023/08/06 04:21:14;;;;;;;7.75;2.25;;;;;;;;;;5004654;28;20199;-65
2023/08/06 04:23:40;;;;;;;7.15;2.63;;;;;;;;;;5001770;28;20057;-67
2023/08/06 04:26:06;;;;;;;6.82;2.38;;;;;;;;;;5004289;28;20103;-66
2023/08/06 04:28:32;;;;;;;8.90;2.28;;;;;;;;;;5004400;28;20069;-65
2023/08/06 04:30:59;;;;;;;6.57;2.20;;;;;;;;;;5004645;28;20058;-68
2023/08/06 04:33:25;;;;;;;9.30;2.60;;;;;;;;;;5004331;28;20041;-65
2023/08/06 04:35:55;;;;;;;9.25;2.58;;;;;;;;;;5003683;28;20041;-67
2023/08/06 04:38:27;;;;;;;6.15;2.20;;;;;;;;;;5002668;28;20111;-67
2023/08/06 04:40:53;;;;;;;6.78;2.67;;;;;;;;;;5004871;28;20573;-66
2023/08/06 04:43:19;;;;;;;10.85;2.40;;;;;;;;;;5002304;28;20145;-66
2023/08/06 04:45:54;;;;;;;7.03;2.22;;;;;;;;;;5000667;28;20050;-67
2023/08/06 04:48:20;;;;;;;9.23;2.47;;;;;;;;;;4999937;28;20083;-66
2023/08/06 04:50:46;;;;;;;19.85;2.97;;;;;;;;;;5000982;28;20049;-66
2023/08/06 04:53:13;;;;;;;10.35;2.65;;;;;;;;;;5002271;28;20053;-66
2023/08/06 04:55:39;;;;;;;9.77;2.17;;;;;;;;;;5004438;28;20140;-66
2023/08/06 04:58:06;;;;;;;10.55;2.38;;;;;;;;;;5002183;28;20175;-65
2023/08/06 05:00:32;;;;;;;10.88;2.47;;;;;;;;;;5001616;28;20236;-65
2023/08/06 05:03:00;;;;;;;12.13;2.88;;;;;;;;;;5001232;28;20041;-64
2023/08/06 05:05:27;;;;;;;11.73;2.40;;;;;;;;;;5003491;28;20057;-66
2023/08/06 05:07:54;;;;;;;6.18;2.45;;;;;;;;;;5000662;28;20049;-65
2023/08/06 05:10:20;;;;;;;10.18;2.58;;;;;;;;;;5007083;28;20792;-66
2023/08/06 05:12:46;;;;;;;9.77;2.50;;;;;;;;;;4999755;28;20084;-66
2023/08/06 05:15:12;;;;;;;10.88;2.53;;;;;;;;;;5002594;28;20050;-65
2023/08/06 05:17:38;;;;;;;7.57;2.10;;;;;;;;;;5002983;28;20052;-65
2023/08/06 05:20:05;;;;;;;5.25;1.85;;;;;;;;;;5003666;28;20053;-66
2023/08/06 05:22:31;;;;;;;5.95;2.15;;;;;;;;;;5002173;28;20057;-68
2023/08/06 05:24:56;;;;;;;5.28;2.13;;;;;;;;;;5000979;28;20053;-67
2023/08/06 05:27:23;;;;;;;6.72;2.30;;;;;;;;;;5001658;28;20049;-68
2023/08/06 05:29:49;;;;;;;11.70;2.42;;;;;;;;;;5004231;28;20522;-66
2023/08/06 05:32:15;;;;;;;7.15;2.10;;;;;;;;;;5001682;28;20049;-65
2023/08/06 05:34:41;;;;;;;8.23;2.20;;;;;;;;;;5005227;28;20056;-66
2023/08/06 05:37:07;;;;;;;8.43;2.10;;;;;;;;;;5000641;28;20069;-66
2023/08/06 05:39:33;;;;;;;5.60;2.20;;;;;;;;;;5002954;28;20041;-65
2023/08/06 05:41:59;;;;;;;8.82;2.45;;;;;;;;;;5000625;28;20602;-66
2023/08/06 05:44:25;;;;;;;8.70;2.70;;;;;;;;;;5003689;28;20152;-66
2023/08/06 05:46:53;;;;;;;10.20;2.55;;;;;;;;;;5000662;28;20053;-67
2023/08/06 05:49:19;;;;;;;9.68;2.55;;;;;;;;;;5002840;28;20077;-64
2023/08/06 05:51:52;;;;;;;6.60;2.17;;;;;;;;;;4998577;28;20846;-66
2023/08/06 05:54:20;;;;;;;6.35;2.00;;;;;;;;;;5013755;28;20514;-65
2023/08/06 05:56:47;;;;;;;6.35;2.28;;;;;;;;;;5001860;28;20065;-67
2023/08/06 05:59:13;;;;;;;5.82;2.38;;;;;;;;;;4986853;28;20170;-67
2023/08/06 06:01:39;;;;;;;5.20;2.28;;;;;;;;;;5000121;28;20474;-63
2023/08/06 06:04:04;;;;;;;8.43;2.70;;;;;;;;;;5002715;28;20099;-65
2023/08/06 06:06:31;;;;;;;7.65;2.03;;;;;;;;;;4999842;28;20086;-66
2023/08/06 06:08:58;;;;;;;8.98;2.50;;;;;;;;;;5002478;28;20060;-65
2023/08/06 06:11:24;;;;;;;12.00;2.55;;;;;;;;;;5004656;28;20049;-65
2023/08/06 06:13:51;;;;;;;8.13;2.55;;;;;;;;;;5006513;28;20052;-66
2023/08/06 06:16:17;;;;;;;6.45;2.65;;;;;;;;;;5006324;28;20111;-66
2023/08/06 06:18:43;;;;;;;6.35;2.38;;;;;;;;;;5005091;28;20065;-66
2023/08/06 06:21:10;;;;;;;8.23;2.10;;;;;;;;;;5006331;28;20191;-68
2023/08/06 06:23:36;;;;;;;6.85;1.98;;;;;;;;;;5005741;28;20072;-68
2023/08/06 06:26:02;;;;;;;7.28;2.13;;;;;;;;;;5007412;28;20068;-67
2023/08/06 06:28:28;;;;;;;10.80;2.60;;;;;;;;;;5005784;28;20286;-67
2023/08/06 06:31:00;;;;;;;5.88;2.00;;;;;;;;;;5008697;28;20488;-66
2023/08/06 06:33:26;;;;;;;10.40;2.40;;;;;;;;;;5006186;28;20037;-67
2023/08/06 06:35:52;;;;;;;7.70;2.30;;;;;;;;;;5004172;28;20056;-68
2023/08/06 06:38:18;;;;;;;6.93;2.50;;;;;;;;;;5004335;28;20057;-68
2023/08/06 06:40:44;;;;;;;12.60;2.92;;;;;;;;;;5007394;28;20062;-68
2023/08/06 06:43:10;;;;;;;6.43;2.20;;;;;;;;;;5005679;28;20364;-66
2023/08/06 06:45:36;;;;;;;8.48;2.20;;;;;;;;;;5004537;28;20053;-69
2023/08/06 06:48:03;;;;;;;7.15;2.17;;;;;;;;;;4999925;28;20498;-67
2023/08/06 06:50:29;;;;;;;7.15;2.72;;;;;;;;;;5004368;28;20053;-68
2023/08/06 06:52:54;;;;;;;4.45;2.00;;;;;;;;;;5005512;28;20106;-66
2023/08/06 06:55:20;;;;;;;9.63;2.40;;;;;;;;;;5006714;28;20128;-66
2023/08/06 06:57:46;;;;;;;5.45;2.00;;;;;;;;;;5004400;28;20538;-68
2023/08/06 07:00:13;;;;;;;5.95;2.20;;;;;;;;;;5004924;28;20406;-67
2023/08/06 07:02:39;;;;;;;9.23;2.00;;;;;;;;;;5002282;28;20755;-67
2023/08/06 07:05:07;;;;;;;6.85;2.22;;;;;;;;;;5004427;28;20033;-69
2023/08/06 07:07:33;;;;;;;8.27;1.85;;;;;;;;;;5003558;28;20083;-67
2023/08/06 07:09:59;;;;;;;9.00;1.95;;;;;;;;;;5010757;28;20111;-68
2023/08/06 07:12:25;;;;;;;9.00;2.17;;;;;;;;;;5004382;28;20061;-67
2023/08/06 07:14:51;;;;;;;5.53;1.98;;;;;;;;;;5005708;28;20049;-69
2023/08/06 07:17:16;;;;;;;8.60;2.10;;;;;;;;;;5002649;28;20060;-67
2023/08/06 07:19:42;;;;;;;6.40;2.05;;;;;;;;;;5004336;28;20158;-69
2023/08/06 07:22:09;;;;;;;6.38;2.30;;;;;;;;;;5003486;28;20053;-71
2023/08/06 07:24:35;;;;;;;7.00;2.25;;;;;;;;;;5005822;28;20450;-67
2023/08/06 07:27:01;;;;;;;7.13;2.08;;;;;;;;;;5004254;28;20666;-68
2023/08/06 07:29:27;;;;;;;10.10;2.10;;;;;;;;;;5007143;28;20058;-69
2023/08/06 07:31:55;;;;;;;4.88;2.10;;;;;;;;;;5003516;28;20049;-66
2023/08/06 07:34:21;;;;;;;3.63;1.75;;;;;;;;;;5005915;28;20045;-66
2023/08/06 07:36:47;;;;;;;4.82;2.05;;;;;;;;;;5003626;28;20045;-67
2023/08/06 07:39:13;;;;;;;10.15;2.00;;;;;;;;;;5004394;28;20384;-68
2023/08/06 07:41:41;;;;;;;10.07;2.17;;;;;;;;;;5003946;28;20065;-68
2023/08/06 07:44:07;;;;;;;7.13;2.25;;;;;;;;;;5001530;28;20053;-72
2023/08/06 07:46:33;;;;;;;3.83;1.90;;;;;;;;;;5002774;28;20404;-73
2023/08/06 07:48:59;;;;;;;7.90;2.03;;;;;;;;;;5008877;28;20061;-71
2023/08/06 07:51:25;;;;;;;14.55;1.98;;;;;;;;;;5003934;28;20511;-70
2023/08/06 07:53:51;;;;;;;11.45;2.72;;;;;;;;;;5004894;28;20057;-69
2023/08/06 07:56:16;;;;;;;7.07;1.83;;;;;;;;;;5003422;28;20591;-67
2023/08/06 07:58:43;;;;;;;8.00;1.92;;;;;;;;;;5002623;28;21301;-73
2023/08/06 08:01:09;;;;;;;5.90;2.13;;;;;;;;;;5004160;28;20462;-69
2023/08/06 08:03:35;;;;;;;5.28;1.83;;;;;;;;;;5003358;28;20049;-72
2023/08/06 08:06:01;;;;;;;5.22;1.60;;;;;;;;;;5002951;28;20553;-71
2023/08/06 08:08:27;;;;;;;9.07;1.80;;;;;;;;;;5001720;28;20723;-69
2023/08/06 08:10:55;;;;;;;4.22;1.67;;;;;;;;;;5011405;28;20068;-72
2023/08/06 08:13:21;;;;;;;6.00;1.77;;;;;;;;;;5002144;28;20046;-72
2023/08/06 08:15:47;;;;;;;8.05;2.03;;;;;;;;;;5003180;28;20158;-68
2023/08/06 08:18:13;;;;;;;6.30;1.80;;;;;;;;;;5000435;28;20053;-70
2023/08/06 08:20:39;;;;;;;5.10;1.67;;;;;;;;;;5004731;28;20057;-69
2023/08/06 08:23:05;;;;;;;5.07;1.50;;;;;;;;;;5003130;28;20065;-69
2023/08/06 08:25:31;;;;;;;3.90;1.75;;;;;;;;;;5002051;28;20064;-69
2023/08/06 08:27:57;;;;;;;4.65;1.50;;;;;;;;;;5002638;28;20059;-69
2023/08/06 08:30:24;;;;;;;5.18;1.85;;;;;;;;;;5005240;28;20057;-67
2023/08/06 08:32:51;;;;;;;6.28;1.77;;;;;;;;;;5004284;28;20053;-69
2023/08/06 08:35:17;;;;;;;5.35;1.30;;;;;;;;;;5001089;28;20529;-67
2023/08/06 08:37:45;;;;;;;5.95;1.63;;;;;;;;;;5001992;28;20057;-67
2023/08/06 08:40:11;;;;;;;6.80;1.98;;;;;;;;;;5002142;28;20053;-67
2023/08/06 08:42:37;;;;;;;5.35;1.90;;;;;;;;;;5001563;28;20045;-67
2023/08/06 08:45:14;;;;;;;9.10;2.10;;;;;;;;;;5001777;28;20057;-67
2023/08/06 08:47:43;;;;;;;4.47;1.58;;;;;;;;;;4999958;28;20053;-69
2023/08/06 08:50:10;;;;;;;6.55;1.85;;;;;;;;;;5002530;28;20049;-68
2023/08/06 08:52:39;;;;;;;5.90;1.48;;;;;;;;;;5000360;28;20128;-67
2023/08/06 08:55:07;;;;;;;5.07;1.80;;;;;;;;;;4999233;28;20141;-66
2023/08/06 08:57:34;;;;;;;5.45;1.77;;;;;;;;;;5000659;28;20626;-68
2023/08/06 09:00:00;;;;;;;6.95;1.98;;;;;;;;;;5001535;28;20049;-67
2023/08/06 09:02:29;;;;;;;7.07;1.90;;;;;;;;;;4999514;28;20061;-67
2023/08/06 09:05:02;;;;;;;4.32;2.10;;;;;;;;;;5001211;28;20054;-67
2023/08/06 09:07:32;;;;;;;7.27;2.03;;;;;;;;;;5000765;28;20576;-63
2023/08/06 09:09:59;;;;;;;8.13;2.38;;;;;;;;;;5008687;28;20041;-66
2023/08/06 09:12:26;;;;;;;7.65;2.05;;;;;;;;;;5002753;28;20259;-67
2023/08/06 09:14:52;;;;;;;9.88;2.35;;;;;;;;;;5006108;28;20045;-68
2023/08/06 09:17:19;;;;;;;3.33;1.80;;;;;;;;;;5000034;28;20521;-66
2023/08/06 09:19:48;;;;;;;4.18;2.00;;;;;;;;;;5002495;28;20057;-67
2023/08/06 09:22:14;;;;;;;6.32;2.13;;;;;;;;;;5000347;28;20588;-67
2023/08/06 09:24:44;;;;;;;9.43;2.38;;;;;;;;;;5004341;28;20400;-67
2023/08/06 09:27:14;;;;;;;4.40;1.90;;;;;;;;;;5002463;28;20049;-66
2023/08/06 09:29:45;;;;;;;5.20;2.10;;;;;;;;;;5001244;28;20084;-70
2023/08/06 09:32:13;;;;;;;7.60;2.22;;;;;;;;;;5003133;28;20045;-70
2023/08/06 09:34:41;;;;;;;8.25;2.35;;;;;;;;;;5001252;28;20589;-67
2023/08/06 09:37:10;;;;;;;7.25;2.10;;;;;;;;;;5002052;28;20048;-67
2023/08/06 09:39:38;;;;;;;8.25;2.30;;;;;;;;;;5002819;28;20056;-70
2023/08/06 09:42:05;;;;;;;6.32;1.90;;;;;;;;;;5001209;28;20057;-68
2023/08/06 09:44:32;;;;;;;6.38;2.30;;;;;;;;;;5003857;28;20590;-69
2023/08/06 09:47:00;;;;;;;5.50;2.00;;;;;;;;;;5006940;28;20758;-68
2023/08/06 09:49:28;;;;;;;7.45;2.15;;;;;;;;;;5006379;28;20045;-68
2023/08/06 09:51:58;;;;;;;4.85;1.92;;;;;;;;;;5008788;28;20107;-67
2023/08/06 09:54:26;;;;;;;5.47;1.92;;;;;;;;;;5007200;28;20050;-68
2023/08/06 09:56:53;;;;;;;6.45;1.95;;;;;;;;;;5004778;28;20056;-69
2023/08/06 09:59:19;;;;;;;4.40;1.48;;;;;;;;;;5005331;28;20392;-69
2023/08/06 10:01:46;;;;;;;5.10;1.80;;;;;;;;;;5004810;28;20084;-68
2023/08/06 10:04:16;;;;;;;5.43;1.73;;;;;;;;;;5007708;28;20060;-69
2023/08/06 10:06:43;;;;;;;5.82;1.70;;;;;;;;;;5007695;28;20585;-68
2023/08/06 10:09:09;;;;;;;4.93;1.95;;;;;;;;;;5008374;28;20044;-73
2023/08/06 10:11:37;;;;;;;6.47;1.80;;;;;;;;;;5012639;28;20041;-69
2023/08/06 10:14:16;;;;;;;3.83;1.70;;;;;;;;;;5005756;28;20466;-69
2023/08/06 10:16:42;;;;;;;9.35;2.13;;;;;;;;;;5006785;28;20380;-68
2023/08/06 10:19:12;;;;;;;5.90;2.00;;;;;;;;;;5008003;28;20491;-70
2023/08/06 10:21:39;;;;;;;4.45;2.00;;;;;;;;;;5006380;28;20045;-67
2023/08/06 10:24:10;;;;;;;5.40;2.00;;;;;;;;;;5006701;28;20082;-68
2023/08/06 10:26:37;;;;;;;4.22;1.60;;;;;;;;;;5007775;28;20045;-67
2023/08/06 10:29:36;;;;;;;5.18;1.60;;;;;;;;;;5007878;28;20101;-70
2023/08/06 10:32:04;;;;;;;5.25;1.70;;;;;;;;;;5008156;28;20081;-69
2023/08/06 10:34:57;;;;;;;3.65;1.60;;;;;;;;;;5009958;28;20585;-70
2023/08/06 10:37:24;;;;;;;4.65;1.60;;;;;;;;;;5004909;28;20170;-70
2023/08/06 10:39:52;;;;;;;8.52;1.77;;;;;;;;;;5007416;28;20183;-69
2023/08/06 10:42:28;;;;;;;4.00;1.40;;;;;;;;;;5006994;28;20050;-68
2023/08/06 10:45:19;;;;;;;4.32;1.75;;;;;;;;;;5007050;28;20057;-68
2023/08/06 10:47:45;;;;;;;4.15;2.03;;;;;;;;;;5005945;28;20057;-68
2023/08/06 10:50:13;;;;;;;4.13;1.50;;;;;;;;;;5006233;28;20148;-69
2023/08/06 10:52:40;;;;;;;5.95;1.45;;;;;;;;;;5006859;28;20054;-70
2023/08/06 10:55:06;;;;;;;5.88;1.90;;;;;;;;;;5002145;28;20045;-70
2023/08/06 10:57:32;;;;;;;6.07;1.80;;;;;;;;;;5006306;28;20049;-70
2023/08/06 10:59:58;;;;;;;4.35;1.88;;;;;;;;;;5006866;28;20404;-68
2023/08/06 11:02:25;;;;;;;4.47;1.88;;;;;;;;;;5003207;28;20108;-69
2023/08/06 11:04:51;;;;;;;9.48;2.10;;;;;;;;;;5007287;28;20045;-68
2023/08/06 11:07:17;;;;;;;9.15;1.90;;;;;;;;;;5005207;28;20053;-71
2023/08/06 11:09:43;;;;;;;3.95;2.08;;;;;;;;;;5013988;28;20053;-69
2023/08/06 11:12:10;;;;;;;5.40;1.80;;;;;;;;;;5005915;28;20060;-67
2023/08/06 11:14:36;;;;;;;4.00;1.67;;;;;;;;;;5005742;28;20050;-69
2023/08/06 11:17:02;;;;;;;6.40;1.98;;;;;;;;;;5003736;28;20068;-70
2023/08/06 11:19:29;;;;;;;3.97;1.73;;;;;;;;;;5007929;28;20057;-69
2023/08/06 11:21:56;;;;;;;3.78;1.73;;;;;;;;;;5005470;28;20056;-69
2023/08/06 11:24:24;;;;;;;7.32;2.20;;;;;;;;;;5006893;28;20048;-68
2023/08/06 11:26:50;;;;;;;5.88;1.90;;;;;;;;;;5023860;28;20132;-73
2023/08/06 11:29:17;;;;;;;4.15;1.73;;;;;;;;;;5004654;28;20523;-69
2023/08/06 11:31:43;;;;;;;7.00;1.80;;;;;;;;;;5003388;28;20066;-74
2023/08/06 11:34:09;;;;;;;4.43;1.70;;;;;;;;;;5007659;28;20058;-69
2023/08/06 11:36:40;;;;;;;3.13;1.50;;;;;;;;;;5005271;28;20732;-68
2023/08/06 11:39:06;;;;;;;4.40;1.40;;;;;;;;;;5004954;28;20056;-69
2023/08/06 11:41:32;;;;;;;5.97;1.20;;;;;;;;;;5005735;28;20270;-71
2023/08/06 11:44:00;;;;;;;5.65;1.48;;;;;;;;;;5006194;28;20056;-69
2023/08/06 11:46:26;;;;;;;3.97;1.33;;;;;;;;;;5004703;28;20100;-68
2023/08/06 11:48:56;;;;;;;3.13;1.50;;;;;;;;;;5005222;28;20193;-70
2023/08/06 11:51:24;;;;;;;5.10;1.42;;;;;;;;;;5007425;28;20037;-70
2023/08/06 11:53:53;;;;;;;3.70;1.27;;;;;;;;;;5008736;28;20395;-70
2023/08/06 11:56:21;;;;;;;7.78;1.38;;;;;;;;;;5004418;28;20057;-70
2023/08/06 11:58:47;;;;;;;4.03;1.30;;;;;;;;;;5003420;28;20100;-70
2023/08/06 12:01:14;;;;;;;1.85;0.93;;;;;;;;;;5003931;28;20064;-70
2023/08/06 12:03:40;;;;;;;2.45;1.20;;;;;;;;;;5003378;28;20056;-72
2023/08/06 12:06:09;;;;;;;3.28;1.20;;;;;;;;;;5001806;28;20423;-69
2023/08/06 12:08:35;;;;;;;5.70;1.27;;;;;;;;;;5002814;28;20050;-71
2023/08/06 12:11:01;;;;;;;5.82;1.80;;;;;;;;;;5010739;28;20473;-68
2023/08/06 12:13:27;;;;;;;6.90;1.17;;;;;;;;;;5002206;28;20143;-68
2023/08/06 12:15:54;;;;;;;3.15;1.10;;;;;;;;;;5005393;28;20089;-69
2023/08/06 12:18:22;;;;;;;2.38;1.13;;;;;;;;;;5003819;28;20504;-69
2023/08/06 12:20:48;;;;;;;2.42;1.20;;;;;;;;;;5005815;28;20053;-70
2023/08/06 12:23:15;;;;;;;4.88;1.20;;;;;;;;;;5004514;28;20048;-70
2023/08/06 12:25:42;;;;;;;2.88;1.25;;;;;;;;;;5005656;28;20752;-69
2023/08/06 12:28:09;;;;;;;3.63;1.33;;;;;;;;;;5002804;28;20539;-69
2023/08/06 12:30:35;;;;;;;2.80;1.20;;;;;;;;;;5003918;28;20060;-69
2023/08/06 12:33:01;;;;;;;3.63;1.23;;;;;;;;;;5001909;28;20419;-71
2023/08/06 12:35:27;;;;;;;3.45;1.20;;;;;;;;;;5006697;28;20518;-70
2023/08/06 12:37:54;;;;;;;5.13;1.23;;;;;;;;;;5004799;28;20048;-70
2023/08/06 12:40:20;;;;;;;7.05;1.40;;;;;;;;;;5004709;28;20071;-69
2023/08/06 12:42:46;;;;;;;4.18;1.60;;;;;;;;;;5003310;28;20063;-69
2023/08/06 12:45:12;;;;;;;3.72;1.20;;;;;;;;;;5004417;28;20077;-69
2023/08/06 12:47:38;;;;;;;5.28;1.30;;;;;;;;;;5003276;28;20140;-68
2023/08/06 12:50:05;;;;;;;6.35;1.52;;;;;;;;;;5003329;28;20115;-68
2023/08/06 12:52:31;;;;;;;3.58;1.10;;;;;;;;;;5003046;28;20632;-70
2023/08/06 12:54:57;;;;;;;7.50;1.65;;;;;;;;;;5002825;28;20638;-70
2023/08/06 12:57:23;;;;;;;5.63;1.23;;;;;;;;;;5002008;28;20485;-69
2023/08/06 12:59:49;;;;;;;4.25;1.35;;;;;;;;;;5001945;28;20053;-69
2023/08/06 13:02:15;;;;;;;6.32;1.40;;;;;;;;;;5002330;28;20469;-70
2023/08/06 13:04:41;;;;;;;5.03;1.20;;;;;;;;;;5003759;28;20495;-70
2023/08/06 13:07:06;;;;;;;3.72;1.20;;;;;;;;;;5004122;28;20049;-70
2023/08/06 13:09:33;;;;;;;3.28;1.30;;;;;;;;;;5004227;28;20960;-70
2023/08/06 13:11:59;;;;;;;2.88;1.20;;;;;;;;;;5006760;28;20478;-70
2023/08/06 13:14:25;;;;;;;6.43;1.60;;;;;;;;;;5002992;28;20100;-68
2023/08/06 13:16:51;;;;;;;4.90;1.38;;;;;;;;;;5000968;28;20411;-70
2023/08/06 13:19:18;;;;;;;3.90;1.20;;;;;;;;;;5002897;28;20645;-69
2023/08/06 13:21:50;;;;;;;4.97;1.40;;;;;;;;;;5004709;28;20640;-69
2023/08/06 13:24:16;;;;;;;3.08;1.02;;;;;;;;;;5003626;28;20044;-70
2023/08/06 13:26:42;;;;;;;4.60;1.20;;;;;;;;;;5001988;28;20045;-70
2023/08/06 13:29:08;;;;;;;5.57;1.60;;;;;;;;;;5017228;28;20534;-70
2023/08/06 13:31:33;;;;;;;4.97;1.30;;;;;;;;;;5002997;28;20046;-70
2023/08/06 13:33:59;;;;;;;4.43;1.25;;;;;;;;;;5003566;28;20318;-69
2023/08/06 13:36:29;;;;;;;7.50;1.40;;;;;;;;;;5003776;28;20123;-69
2023/08/06 13:38:55;;;;;;;5.28;1.27;;;;;;;;;;5002691;28;20448;-69
2023/08/06 13:41:21;;;;;;;5.53;1.30;;;;;;;;;;5002144;28;20049;-69
2023/08/06 13:43:47;;;;;;;10.23;1.27;;;;;;;;;;5001797;28;20046;-69
2023/08/06 13:46:18;;;;;;;3.15;1.38;;;;;;;;;;5003066;28;20057;-69
2023/08/06 13:48:45;;;;;;;6.13;1.65;;;;;;;;;;5002470;28;20053;-70
2023/08/06 13:51:14;;;;;;;5.38;1.60;;;;;;;;;;5003288;28;20061;-70
2023/08/06 13:53:40;;;;;;;5.68;1.75;;;;;;;;;;5000250;28;20049;-70
2023/08/06 13:56:10;;;;;;;3.90;1.40;;;;;;;;;;5002715;28;20060;-69
2023/08/06 13:58:35;;;;;;;5.43;1.42;;;;;;;;;;5001903;28;20385;-70
2023/08/06 14:01:02;;;;;;;6.10;1.40;;;;;;;;;;5003434;28;20438;-69
2023/08/06 14:03:27;;;;;;;10.40;1.35;;;;;;;;;;5001767;28;20140;-70
2023/08/06 14:05:56;;;;;;;4.88;1.30;;;;;;;;;;5005283;28;20033;-70
2023/08/06 14:08:23;;;;;;;7.70;1.60;;;;;;;;;;5003456;28;20057;-70
2023/08/06 14:10:50;;;;;;;4.32;1.40;;;;;;;;;;5004841;28;20049;-70
2023/08/06 14:13:16;;;;;;;8.90;1.83;;;;;;;;;;5000723;28;20487;-69
2023/08/06 14:15:46;;;;;;;8.45;1.55;;;;;;;;;;5002950;28;20066;-70
2023/08/06 14:18:14;;;;;;;5.63;1.83;;;;;;;;;;5004162;28;20057;-69
2023/08/06 14:20:40;;;;;;;3.88;1.30;;;;;;;;;;5003177;28;20254;-70
2023/08/06 14:23:06;;;;;;;5.80;1.30;;;;;;;;;;5002149;28;20485;-70
2023/08/06 14:25:33;;;;;;;6.60;1.38;;;;;;;;;;5002678;28;20103;-71
2023/08/06 14:27:58;;;;;;;7.72;1.42;;;;;;;;;;4999427;28;20499;-69
2023/08/06 14:30:25;;;;;;;7.22;1.10;;;;;;;;;;5002016;28;20058;-69
2023/08/06 14:32:51;;;;;;;4.50;1.42;;;;;;;;;;5000909;28;20736;-69
2023/08/06 14:35:17;;;;;;;8.45;1.48;;;;;;;;;;5006388;28;20061;-68
2023/08/06 14:37:44;;;;;;;6.90;1.73;;;;;;;;;;5005137;28;20049;-70
2023/08/06 14:40:11;;;;;;;6.43;1.48;;;;;;;;;;5008008;28;20064;-69
2023/08/06 14:42:37;;;;;;;5.57;1.30;;;;;;;;;;5005193;28;20503;-72
2023/08/06 14:45:03;;;;;;;6.18;1.40;;;;;;;;;;5007661;28;20152;-69
2023/08/06 14:47:29;;;;;;;6.18;1.70;;;;;;;;;;5005098;28;20403;-70
2023/08/06 14:49:55;;;;;;;9.05;1.88;;;;;;;;;;5006096;28;20060;-71
2023/08/06 14:52:22;;;;;;;5.07;1.40;;;;;;;;;;5006730;28;20115;-70
2023/08/06 14:54:51;;;;;;;7.05;1.38;;;;;;;;;;4988459;28;20045;-70
2023/08/06 14:57:18;;;;;;;4.13;1.45;;;;;;;;;;5003470;28;20046;-73
2023/08/06 14:59:45;;;;;;;6.13;1.70;;;;;;;;;;5005956;28;21027;-69
2023/08/06 15:02:11;;;;;;;3.60;1.30;;;;;;;;;;5002839;28;20455;-68
2023/08/06 15:04:37;;;;;;;5.25;1.45;;;;;;;;;;5003557;28;20419;-69
2023/08/06 15:07:03;;;;;;;6.65;1.60;;;;;;;;;;5003007;28;20053;-74
2023/08/06 15:09:29;;;;;;;7.85;1.58;;;;;;;;;;5004221;28;20061;-68
2023/08/06 15:11:55;;;;;;;5.45;1.52;;;;;;;;;;5008305;28;20076;-68
2023/08/06 15:14:21;;;;;;;5.57;1.52;;;;;;;;;;5002953;28;20448;-68
2023/08/06 15:16:47;;;;;;;4.57;1.52;;;;;;;;;;5001452;28;20059;-69
2023/08/06 15:19:13;;;;;;;8.23;1.58;;;;;;;;;;5003390;28;20515;-67
2023/08/06 15:21:39;;;;;;;7.55;1.70;;;;;;;;;;5001732;28;20255;-69
2023/08/06 15:24:05;;;;;;;8.13;1.48;;;;;;;;;;5001747;28;20049;-69
2023/08/06 15:26:31;;;;;;;5.78;1.35;;;;;;;;;;5002356;28;20057;-68
2023/08/06 15:28:57;;;;;;;4.85;1.52;;;;;;;;;;5003785;28;20066;-68
2023/08/06 15:31:23;;;;;;;4.68;1.40;;;;;;;;;;5000116;28;20477;-70
2023/08/06 15:33:49;;;;;;;10.02;2.25;;;;;;;;;;5001765;28;20045;-70
2023/08/06 15:36:16;;;;;;;4.03;1.50;;;;;;;;;;5002098;28;20400;-67
2023/08/06 15:38:42;;;;;;;4.78;1.55;;;;;;;;;;4998695;28;20537;-68
2023/08/06 15:41:08;;;;;;;9.30;2.00;;;;;;;;;;5003390;28;20549;-72